Aviation Digital Data Service (ADDS)

Output produced by METARs form (1405 UTC 24 August 2019)
found at http://www.aviationweather.gov/metar/data/
 
Forecast for: UKKK (KIEV/ZHYLIANY , UA)
Text: TAF UKKK 241104Z 2412/2512 03005G10MPS 9999 SCT040 TX27/2412Z TN14/2503Z
Forecast period: 1200 UTC 24 August 2019 to 1200 UTC 25 August 2019
Forecast type: FROM: standard forecast or significant change
Winds: from the NNE (30 degrees) at 12 MPH (10 knots; 5.1 m/s)
gusting to 22 MPH (19 knots; 9.8 m/s)
Visibility: 6 or more miles 10+ km)
Ceiling: at least 12,000 feet AGL
Clouds: scattered clouds at 4000 feet AGL
Weather: no significant weather forecast for this period
Text: TEMPO 2412/2416 36007G12MPS
Forecast period: 1200 to 1600 UTC 24 August 2019
Forecast type: TEMPORARY: The following changes expected for less than half the time period
Winds: from the N (360 degrees) at 16 MPH (14 knots; 7.2 m/s)
gusting to 26 MPH (23 knots; 11.8 m/s)
Visibility: missing
Ceiling: unknown
Clouds: missing
Weather: no significant weather forecast for this period
Text: TEMPO 2421/2505 2000 BR SCT005
Forecast period: 2100 UTC 24 August 2019 to 0500 UTC 25 August 2019
Forecast type: TEMPORARY: The following changes expected for less than half the time period
Visibility: 1.24 miles (2.00 km)
Ceiling: at least 12,000 feet AGL
Clouds: scattered clouds at 500 feet AGL
Weather: BR  (mist)